Time;durP1;ratioP1;P1;durP2;ratioP2;P2;SDS_P1;SDS_P2;PMS_P1;PMS_P2;Temp;Humidity;BMP_temperature;BMP_pressure;BME280_temperature;BME280_humidity;BME280_pressure;Samples;Min_cycle;Max_cycle;Signal;HPM_P1;HPM_P2
2022/04/26 03:36:41;;;;;;;16.13;14.50;;;;;;;;;;5083173;28;20268;-69
2022/04/26 03:39:08;;;;;;;16.55;14.85;;;;;;;;;;5083683;28;20203;-69
2022/04/26 03:41:35;;;;;;;15.35;13.82;;;;;;;;;;5083410;28;20236;-69
2022/04/26 03:44:01;;;;;;;15.15;13.75;;;;;;;;;;5083423;28;20197;-69
2022/04/26 03:46:27;;;;;;;15.77;14.13;;;;;;;;;;5083065;28;20200;-69
2022/04/26 03:48:54;;;;;;;15.80;14.15;;;;;;;;;;5083133;28;20206;-69
2022/04/26 03:51:21;;;;;;;15.55;13.98;;;;;;;;;;5082994;28;20196;-69
2022/04/26 03:53:48;;;;;;;14.25;12.95;;;;;;;;;;5083092;28;20265;-69
2022/04/26 03:56:14;;;;;;;15.30;13.70;;;;;;;;;;5082918;28;20216;-69
2022/04/26 03:58:40;;;;;;;14.90;13.48;;;;;;;;;;5082436;28;20241;-69
2022/04/26 04:01:06;;;;;;;15.55;13.90;;;;;;;;;;5083218;28;20212;-69
2022/04/26 04:03:33;;;;;;;16.33;14.18;;;;;;;;;;5082833;28;20197;-69
2022/04/26 04:05:59;;;;;;;14.80;13.40;;;;;;;;;;5082499;28;20212;-69
2022/04/26 04:08:26;;;;;;;14.90;13.40;;;;;;;;;;5083050;28;20242;-69
2022/04/26 04:10:53;;;;;;;15.75;14.25;;;;;;;;;;5082719;28;20201;-69
2022/04/26 04:13:19;;;;;;;14.32;12.82;;;;;;;;;;5082839;28;20196;-69
2022/04/26 04:15:46;;;;;;;14.38;13.00;;;;;;;;;;5082558;28;20212;-69
2022/04/26 04:20:53;;;;;;;16.27;14.50;;;;;;;;;;5082332;28;20188;-69
2022/04/26 04:23:19;;;;;;;16.08;14.57;;;;;;;;;;5082867;28;20203;-69
2022/04/26 04:25:47;;;;;;;21.20;15.95;;;;;;;;;;5082654;28;20192;-69
2022/04/26 04:28:13;;;;;;;17.27;15.50;;;;;;;;;;5082215;28;20242;-69
2022/04/26 04:30:40;;;;;;;16.80;15.00;;;;;;;;;;5082524;28;20263;-69
2022/04/26 04:33:06;;;;;;;17.15;14.73;;;;;;;;;;5082561;28;20196;-69
2022/04/26 04:35:32;;;;;;;15.93;14.10;;;;;;;;;;5082314;28;20219;-69
2022/04/26 04:37:58;;;;;;;14.45;13.02;;;;;;;;;;5082170;28;20197;-69
2022/04/26 04:40:25;;;;;;;15.40;13.80;;;;;;;;;;5082377;28;20223;-69
2022/04/26 04:42:52;;;;;;;16.15;14.55;;;;;;;;;;5082459;28;20201;-69
2022/04/26 04:45:19;;;;;;;16.15;14.45;;;;;;;;;;5082361;28;20196;-69
2022/04/26 04:47:45;;;;;;;14.57;13.02;;;;;;;;;;5082079;28;20405;-68
2022/04/26 04:50:11;;;;;;;15.63;14.05;;;;;;;;;;5082262;28;20196;-68
2022/04/26 04:52:38;;;;;;;16.17;14.57;;;;;;;;;;5082363;28;20200;-68
2022/04/26 04:55:04;;;;;;;17.55;15.65;;;;;;;;;;5082192;28;20235;-68
2022/04/26 04:57:31;;;;;;;17.25;15.50;;;;;;;;;;5081937;28;20270;-68
2022/04/26 05:00:01;;;;;;;16.33;14.70;;;;;;;;;;5082675;28;20196;-68
2022/04/26 05:02:27;;;;;;;16.70;14.95;;;;;;;;;;5082190;28;20212;-68
2022/04/26 05:04:53;;;;;;;16.50;14.75;;;;;;;;;;5082186;28;20196;-68
2022/04/26 05:07:20;;;;;;;15.15;13.55;;;;;;;;;;5081959;28;20188;-68
2022/04/26 05:09:46;;;;;;;13.35;12.05;;;;;;;;;;5082410;28;20207;-68
2022/04/26 05:12:12;;;;;;;12.23;11.13;;;;;;;;;;5084942;28;20196;-68
2022/04/26 05:14:39;;;;;;;11.75;10.52;;;;;;;;;;5085933;28;20205;-68
2022/04/26 05:17:06;;;;;;;12.18;10.98;;;;;;;;;;5085692;28;20246;-68
2022/04/26 05:19:32;;;;;;;11.13;10.00;;;;;;;;;;5086015;28;20241;-68
2022/04/26 05:21:59;;;;;;;9.45;8.60;;;;;;;;;;5085991;28;20237;-68
2022/04/26 05:27:09;;;;;;;9.68;8.98;;;;;;;;;;5085658;28;20204;-67
2022/04/26 05:29:36;;;;;;;10.82;9.93;;;;;;;;;;5085488;28;20211;-68
2022/04/26 05:32:02;;;;;;;10.20;9.30;;;;;;;;;;5085893;28;20261;-68
2022/04/26 05:34:29;;;;;;;9.20;8.32;;;;;;;;;;5085620;28;20211;-67
2022/04/26 05:36:57;;;;;;;9.18;8.38;;;;;;;;;;5085421;28;20227;-67
2022/04/26 05:39:23;;;;;;;9.10;8.40;;;;;;;;;;5085495;28;20196;-67
2022/04/26 05:41:49;;;;;;;8.80;8.10;;;;;;;;;;5085353;28;20196;-67
2022/04/26 05:44:15;;;;;;;8.68;7.88;;;;;;;;;;5085582;28;20234;-67
2022/04/26 05:46:42;;;;;;;7.85;7.25;;;;;;;;;;5085178;28;20195;-67
2022/04/26 05:49:08;;;;;;;8.85;8.05;;;;;;;;;;5085408;28;20503;-67
2022/04/26 05:51:35;;;;;;;8.65;7.85;;;;;;;;;;5085522;28;20204;-67
2022/04/26 05:54:02;;;;;;;9.77;8.85;;;;;;;;;;5085365;28;20525;-67
2022/04/26 05:56:28;;;;;;;9.98;9.18;;;;;;;;;;5084927;28;20277;-67
2022/04/26 05:58:54;;;;;;;10.85;9.85;;;;;;;;;;5085327;28;20204;-67
2022/04/26 06:01:20;;;;;;;10.55;9.55;;;;;;;;;;5085256;28;20249;-67
2022/04/26 06:03:47;;;;;;;11.50;10.30;;;;;;;;;;5085114;28;20196;-67
2022/04/26 06:06:13;;;;;;;10.43;9.43;;;;;;;;;;5084774;28;20218;-67
2022/04/26 06:08:41;;;;;;;10.85;9.85;;;;;;;;;;5085163;28;20242;-67
2022/04/26 06:11:08;;;;;;;12.40;11.20;;;;;;;;;;5085126;28;20275;-67
2022/04/26 06:13:34;;;;;;;12.00;10.80;;;;;;;;;;5085268;28;20267;-67
2022/04/26 06:16:00;;;;;;;12.02;10.75;;;;;;;;;;5084838;28;20216;-67
2022/04/26 06:18:27;;;;;;;11.13;10.07;;;;;;;;;;5084785;28;20200;-68
2022/04/26 06:20:53;;;;;;;10.73;9.73;;;;;;;;;;5084724;28;20218;-67
2022/04/26 06:23:19;;;;;;;11.88;9.88;;;;;;;;;;5084332;28;20437;-67
2022/04/26 06:25:47;;;;;;;10.25;9.25;;;;;;;;;;5084540;28;20495;-67
2022/04/26 06:28:13;;;;;;;10.07;9.07;;;;;;;;;;5084519;28;20422;-67
2022/04/26 06:30:39;;;;;;;10.75;9.65;;;;;;;;;;5084814;28;20398;-67
2022/04/26 06:33:06;;;;;;;10.55;9.65;;;;;;;;;;5084554;28;20208;-67
2022/04/26 06:35:32;;;;;;;9.60;8.80;;;;;;;;;;5084766;28;20539;-67
2022/04/26 06:37:59;;;;;;;9.85;8.88;;;;;;;;;;5084132;28;20276;-67
2022/04/26 06:40:25;;;;;;;8.55;7.85;;;;;;;;;;5084970;28;20196;-67
2022/04/26 06:42:53;;;;;;;9.88;8.98;;;;;;;;;;5084653;28;20226;-67
2022/04/26 06:45:19;;;;;;;9.73;8.93;;;;;;;;;;5084564;28;20216;-67
2022/04/26 06:47:45;;;;;;;9.75;8.85;;;;;;;;;;5084190;28;20197;-68
2022/04/26 06:50:11;;;;;;;9.07;8.27;;;;;;;;;;5077275;28;20246;-57
2022/04/26 06:52:38;;;;;;;9.52;8.73;;;;;;;;;;5091789;28;20557;-57
2022/04/26 06:55:04;;;;;;;9.43;8.65;;;;;;;;;;5090322;28;20535;-57
2022/04/26 06:57:31;;;;;;;9.27;8.55;;;;;;;;;;5098582;28;20224;-56
2022/04/26 06:59:59;;;;;;;8.82;8.13;;;;;;;;;;5098213;28;20226;-56
2022/04/26 07:02:25;;;;;;;9.90;8.73;;;;;;;;;;5098527;28;20219;-55
2022/04/26 07:04:52;;;;;;;9.85;9.05;;;;;;;;;;5091884;28;20204;-55
2022/04/26 07:07:18;;;;;;;9.40;8.55;;;;;;;;;;5091913;28;20208;-56
2022/04/26 07:09:44;;;;;;;9.05;8.25;;;;;;;;;;5097957;28;20211;-57
2022/04/26 07:12:10;;;;;;;9.23;8.43;;;;;;;;;;5098038;28;20212;-56
2022/04/26 07:14:37;;;;;;;9.02;8.20;;;;;;;;;;5098641;28;20212;-55
2022/04/26 07:17:04;;;;;;;8.57;7.70;;;;;;;;;;5097041;28;20537;-56
2022/04/26 07:19:31;;;;;;;9.05;8.35;;;;;;;;;;5097660;28;20577;-56
2022/04/26 07:21:57;;;;;;;10.05;8.77;;;;;;;;;;5097760;28;20212;-55
2022/04/26 07:24:23;;;;;;;8.30;7.70;;;;;;;;;;5097656;28;20204;-56
2022/04/26 07:26:50;;;;;;;9.00;8.13;;;;;;;;;;5097232;28;20513;-56
2022/04/26 07:29:17;;;;;;;9.73;8.93;;;;;;;;;;5096836;28;20562;-56
2022/04/26 07:31:44;;;;;;;9.88;8.98;;;;;;;;;;5097001;28;20215;-58
2022/04/26 07:34:22;;;;;;;9.38;8.65;;;;;;;;;;5096540;28;20295;-58
2022/04/26 07:36:49;;;;;;;9.80;8.90;;;;;;;;;;5096959;28;20467;-56
2022/04/26 07:39:17;;;;;;;9.48;8.68;;;;;;;;;;5096706;28;20628;-57
2022/04/26 07:41:43;;;;;;;10.48;9.45;;;;;;;;;;5096892;28;20211;-57
2022/04/26 07:44:09;;;;;;;10.50;9.60;;;;;;;;;;5097613;28;20257;-57
2022/04/26 07:46:36;;;;;;;9.90;9.00;;;;;;;;;;5096852;28;20241;-58
2022/04/26 07:49:02;;;;;;;10.60;9.60;;;;;;;;;;5096785;28;20223;-57
2022/04/26 07:51:30;;;;;;;10.75;9.75;;;;;;;;;;5096660;28;20546;-56
2022/04/26 07:53:57;;;;;;;10.88;9.77;;;;;;;;;;5097022;28;20207;-57
2022/04/26 07:56:23;;;;;;;10.40;9.45;;;;;;;;;;5097706;28;20294;-56
2022/04/26 07:58:49;;;;;;;10.95;9.63;;;;;;;;;;5097508;28;20208;-56
2022/04/26 08:01:16;;;;;;;10.40;9.50;;;;;;;;;;5096052;28;20222;-57
2022/04/26 08:03:42;;;;;;;10.88;9.88;;;;;;;;;;5096686;28;20264;-61
2022/04/26 08:06:08;;;;;;;10.80;9.80;;;;;;;;;;5096399;28;20226;-60
2022/04/26 08:08:36;;;;;;;10.80;9.90;;;;;;;;;;5096567;28;20264;-55
2022/04/26 08:11:03;;;;;;;11.88;10.65;;;;;;;;;;5095640;28;20436;-56
2022/04/26 08:13:30;;;;;;;11.68;10.65;;;;;;;;;;5096587;28;20254;-57
2022/04/26 08:15:56;;;;;;;11.55;10.40;;;;;;;;;;5095286;28;20235;-59
2022/04/26 08:18:23;;;;;;;12.02;10.93;;;;;;;;;;5096979;28;20510;-58
2022/04/26 08:20:50;;;;;;;11.82;10.82;;;;;;;;;;5095924;28;20559;-56
2022/04/26 08:23:16;;;;;;;16.33;11.40;;;;;;;;;;5096936;28;20208;-57
2022/04/26 08:28:28;;;;;;;13.02;11.77;;;;;;;;;;5096490;28;20230;-55
2022/04/26 08:30:55;;;;;;;14.40;12.18;;;;;;;;;;5095683;28;20239;-57
2022/04/26 08:33:21;;;;;;;12.65;11.55;;;;;;;;;;5096480;28;20535;-57
2022/04/26 08:35:47;;;;;;;13.02;11.73;;;;;;;;;;5096323;28;20580;-58
2022/04/26 08:38:13;;;;;;;14.32;12.90;;;;;;;;;;5096843;28;20215;-58
2022/04/26 08:40:41;;;;;;;13.32;12.05;;;;;;;;;;5096503;28;20215;-57
2022/04/26 08:43:08;;;;;;;13.10;11.43;;;;;;;;;;5096694;28;20234;-56
2022/04/26 08:45:38;;;;;;;13.27;12.00;;;;;;;;;;5096343;28;20211;-57
2022/04/26 08:51:00;;;;;;;12.05;10.82;;;;;;;;;;5096477;28;20458;-56
2022/04/26 08:53:27;;;;;;;11.27;10.18;;;;;;;;;;5095906;28;20211;-56
2022/04/26 08:55:54;;;;;;;10.82;9.73;;;;;;;;;;5096497;28;20208;-56
2022/04/26 08:58:22;;;;;;;9.82;8.93;;;;;;;;;;5096463;28;20223;-56
2022/04/26 09:01:05;;;;;;;12.70;9.93;;;;;;;;;;5095946;28;20287;-58
2022/04/26 09:03:31;;;;;;;8.73;7.95;;;;;;;;;;5083754;28;20243;-56
2022/04/26 09:06:04;;;;;;;9.13;8.32;;;;;;;;;;5075877;28;20266;-57
2022/04/26 09:08:30;;;;;;;8.73;7.82;;;;;;;;;;5076335;28;20258;-56
2022/04/26 09:10:56;;;;;;;9.13;6.95;;;;;;;;;;5075673;28;20207;-56
2022/04/26 09:13:24;;;;;;;8.00;7.20;;;;;;;;;;5086737;28;20234;-58
2022/04/26 09:15:54;;;;;;;10.98;8.00;;;;;;;;;;5096134;28;20203;-58
2022/04/26 09:18:26;;;;;;;8.77;8.05;;;;;;;;;;5096057;28;20452;-57
2022/04/26 09:20:53;;;;;;;10.13;7.90;;;;;;;;;;5095963;28;20286;-58
2022/04/26 09:23:20;;;;;;;9.75;8.35;;;;;;;;;;5095716;28;20253;-57
2022/04/26 09:25:47;;;;;;;8.75;8.05;;;;;;;;;;5096445;28;20406;-57
2022/04/26 09:28:21;;;;;;;9.32;8.52;;;;;;;;;;5096605;28;20204;-57
2022/04/26 09:30:49;;;;;;;9.32;8.05;;;;;;;;;;5096014;28;20208;-58
2022/04/26 09:33:31;;;;;;;9.40;8.25;;;;;;;;;;5095805;28;20424;-57
2022/04/26 09:36:00;;;;;;;8.02;7.15;;;;;;;;;;5096180;28;20208;-58
2022/04/26 09:38:26;;;;;;;8.02;7.32;;;;;;;;;;5095841;28;20231;-56
2022/04/26 09:40:59;;;;;;;8.60;7.82;;;;;;;;;;5096037;28;20208;-58
2022/04/26 09:43:26;;;;;;;9.27;7.72;;;;;;;;;;5095900;28;20310;-57
2022/04/26 09:45:56;;;;;;;8.80;7.93;;;;;;;;;;5095702;28;20208;-57
2022/04/26 09:48:26;;;;;;;11.85;8.38;;;;;;;;;;5095990;28;20196;-57
2022/04/26 09:50:52;;;;;;;8.63;7.15;;;;;;;;;;5095787;28;20204;-57
2022/04/26 09:53:18;;;;;;;8.05;7.25;;;;;;;;;;5095850;28;20208;-57
2022/04/26 09:55:45;;;;;;;6.35;5.75;;;;;;;;;;5095664;28;20211;-57
2022/04/26 09:58:12;;;;;;;8.43;6.03;;;;;;;;;;5097931;28;20251;-56
2022/04/26 10:00:39;;;;;;;5.88;5.38;;;;;;;;;;5099165;28;20415;-57
2022/04/26 10:03:09;;;;;;;6.40;5.90;;;;;;;;;;5099622;28;20211;-57
2022/04/26 10:05:38;;;;;;;5.95;5.45;;;;;;;;;;5099211;28;20232;-58
2022/04/26 10:08:05;;;;;;;7.95;6.32;;;;;;;;;;5099248;28;20245;-57
2022/04/26 10:10:31;;;;;;;9.18;5.93;;;;;;;;;;5098965;28;20215;-58
2022/04/26 10:15:42;;;;;;;6.43;5.82;;;;;;;;;;5099049;28;20463;-58
2022/04/26 10:18:23;;;;;;;6.10;5.50;;;;;;;;;;5099153;28;20228;-57
2022/04/26 10:20:50;;;;;;;7.68;5.15;;;;;;;;;;5098984;28;20551;-57
2022/04/26 10:23:17;;;;;;;5.50;5.13;;;;;;;;;;5099167;28;20212;-58
2022/04/26 10:26:03;;;;;;;6.15;5.68;;;;;;;;;;5098865;28;20279;-57
2022/04/26 10:28:32;;;;;;;6.40;5.80;;;;;;;;;;5099319;28;20211;-57
2022/04/26 10:30:59;;;;;;;9.98;5.95;;;;;;;;;;5098661;28;20231;-56
2022/04/26 10:33:35;;;;;;;5.95;5.45;;;;;;;;;;5099005;28;20203;-56
2022/04/26 10:36:16;;;;;;;6.63;5.63;;;;;;;;;;5098467;28;20234;-57
2022/04/26 10:39:03;;;;;;;5.65;5.25;;;;;;;;;;5098610;28;20281;-58
2022/04/26 10:41:33;;;;;;;6.07;5.45;;;;;;;;;;5098588;28;20211;-56
2022/04/26 10:44:20;;;;;;;5.80;5.30;;;;;;;;;;5098802;28;20497;-55
2022/04/26 10:46:52;;;;;;;6.00;5.40;;;;;;;;;;5080967;28;20204;-56
2022/04/26 10:49:33;;;;;;;5.32;4.88;;;;;;;;;;5098778;28;20249;-56
2022/04/26 10:52:22;;;;;;;8.27;3.20;;;;;;;;;;5098442;28;20212;-55
2022/04/26 10:55:03;;;;;;;4.13;3.38;;;;;;;;;;5098505;28;20215;-55
2022/04/26 10:57:30;;;;;;;6.03;3.63;;;;;;;;;;5097858;28;20613;-56
2022/04/26 10:59:58;;;;;;;8.20;3.38;;;;;;;;;;5098659;28;20207;-55
2022/04/26 11:02:25;;;;;;;6.00;3.63;;;;;;;;;;5098195;28;20233;-55
2022/04/26 11:04:55;;;;;;;4.22;3.45;;;;;;;;;;5098391;28;20229;-55
2022/04/26 11:07:25;;;;;;;3.95;3.53;;;;;;;;;;5099071;28;20372;-55
2022/04/26 11:09:53;;;;;;;3.63;3.10;;;;;;;;;;5096651;28;20212;-56
2022/04/26 11:12:22;;;;;;;3.40;3.08;;;;;;;;;;5098004;28;20519;-56
2022/04/26 11:14:49;;;;;;;4.13;3.63;;;;;;;;;;5098149;28;20212;-56
2022/04/26 11:17:16;;;;;;;3.38;3.08;;;;;;;;;;5097825;28;20224;-56
2022/04/26 11:19:47;;;;;;;6.57;3.25;;;;;;;;;;5097516;28;20246;-56
2022/04/26 11:22:14;;;;;;;4.35;3.40;;;;;;;;;;5098028;28;20207;-56
2022/04/26 11:30:15;;;;;;;5.32;3.80;;;;;;;;;;5097468;28;20230;-55
2022/04/26 11:32:42;;;;;;;8.55;3.60;;;;;;;;;;5097797;28;20211;-57
2022/04/26 11:35:09;;;;;;;4.78;4.25;;;;;;;;;;5098167;28;20214;-57
2022/04/26 11:37:43;;;;;;;8.90;4.22;;;;;;;;;;5098097;28;20228;-56
2022/04/26 11:40:09;;;;;;;4.47;4.05;;;;;;;;;;5096926;28;20526;-55
2022/04/26 11:42:37;;;;;;;5.03;4.22;;;;;;;;;;5097961;28;20208;-56
2022/04/26 11:45:04;;;;;;;4.90;4.40;;;;;;;;;;5098144;28;20204;-55
2022/04/26 11:47:40;;;;;;;8.00;7.20;;;;;;;;;;5097615;28;20204;-55
2022/04/26 11:50:14;;;;;;;7.80;7.00;;;;;;;;;;5097019;28;20265;-56
2022/04/26 11:52:41;;;;;;;9.27;7.53;;;;;;;;;;5097191;28;20207;-55
2022/04/26 11:55:08;;;;;;;7.65;7.05;;;;;;;;;;5097387;28;20207;-55
2022/04/26 11:57:34;;;;;;;8.13;7.47;;;;;;;;;;5097443;28;20462;-56
2022/04/26 12:00:03;;;;;;;11.45;8.07;;;;;;;;;;5097045;28;20208;-56
2022/04/26 12:02:32;;;;;;;8.05;7.13;;;;;;;;;;5097406;28;20215;-55
2022/04/26 12:04:58;;;;;;;7.85;7.15;;;;;;;;;;5097518;28;20295;-55
2022/04/26 12:07:25;;;;;;;7.53;6.82;;;;;;;;;;5097180;28;20534;-55
2022/04/26 12:09:52;;;;;;;7.03;6.43;;;;;;;;;;5096602;28;21068;-56
2022/04/26 12:12:20;;;;;;;12.95;6.63;;;;;;;;;;5096489;28;20399;-56
2022/04/26 12:14:48;;;;;;;8.43;6.55;;;;;;;;;;5096820;28;20203;-55
2022/04/26 12:17:22;;;;;;;8.23;5.97;;;;;;;;;;5096699;28;20269;-55
2022/04/26 12:19:51;;;;;;;7.93;6.30;;;;;;;;;;5096436;28;20301;-59
2022/04/26 12:22:17;;;;;;;6.50;5.90;;;;;;;;;;5095886;28;20208;-58
2022/04/26 12:24:47;;;;;;;6.05;5.65;;;;;;;;;;5081242;28;20208;-57
2022/04/26 12:27:14;;;;;;;5.70;5.00;;;;;;;;;;5096289;28;20461;-57
2022/04/26 12:29:41;;;;;;;6.28;5.30;;;;;;;;;;5096686;28;20211;-57
2022/04/26 12:32:09;;;;;;;7.97;5.85;;;;;;;;;;5096266;28;20209;-58
2022/04/26 12:34:46;;;;;;;5.03;4.72;;;;;;;;;;5097018;28;20547;-57
2022/04/26 12:37:16;;;;;;;5.75;5.38;;;;;;;;;;5096540;28;20213;-58
2022/04/26 12:39:44;;;;;;;4.93;4.53;;;;;;;;;;5096461;28;20200;-56
2022/04/26 12:42:10;;;;;;;4.90;4.50;;;;;;;;;;5095371;28;20207;-57
2022/04/26 12:44:38;;;;;;;5.97;5.18;;;;;;;;;;5096640;28;20208;-58
2022/04/26 12:52:45;;;;;;;6.82;5.35;;;;;;;;;;5095967;28;20558;-57
2022/04/26 12:55:11;;;;;;;4.88;4.47;;;;;;;;;;5096477;28;20283;-58
2022/04/26 12:57:47;;;;;;;5.95;5.43;;;;;;;;;;5096359;28;20224;-57
2022/04/26 13:00:14;;;;;;;6.35;5.65;;;;;;;;;;5096587;28;20434;-57
2022/04/26 13:02:40;;;;;;;6.60;6.13;;;;;;;;;;5096677;28;20241;-57
2022/04/26 13:05:08;;;;;;;7.47;6.88;;;;;;;;;;5096123;28;20231;-59
2022/04/26 13:07:35;;;;;;;8.52;5.05;;;;;;;;;;5096158;28;20399;-57
2022/04/26 13:10:01;;;;;;;4.80;4.40;;;;;;;;;;5096084;28;20785;-57
2022/04/26 13:12:27;;;;;;;4.47;4.18;;;;;;;;;;5096719;28;20246;-56
2022/04/26 13:14:53;;;;;;;4.85;4.40;;;;;;;;;;5085040;28;20220;-58
2022/04/26 13:17:21;;;;;;;4.25;3.88;;;;;;;;;;5094689;28;20258;-59
2022/04/26 13:19:47;;;;;;;3.75;3.55;;;;;;;;;;5081184;28;20484;-58
2022/04/26 13:22:16;;;;;;;4.35;3.72;;;;;;;;;;5079186;28;20386;-58
2022/04/26 13:24:42;;;;;;;4.15;3.95;;;;;;;;;;5096221;28;20204;-57
2022/04/26 13:27:08;;;;;;;4.10;3.67;;;;;;;;;;5095940;28;20217;-57
2022/04/26 13:29:35;;;;;;;3.30;2.97;;;;;;;;;;5096192;28;20207;-56
2022/04/26 13:32:02;;;;;;;4.78;3.75;;;;;;;;;;5095274;28;20402;-56
2022/04/26 13:34:28;;;;;;;5.38;4.05;;;;;;;;;;5100345;28;20542;-56
2022/04/26 13:36:54;;;;;;;3.65;3.17;;;;;;;;;;5099836;28;20265;-56
2022/04/26 13:39:22;;;;;;;3.63;3.40;;;;;;;;;;5099882;28;20220;-57
2022/04/26 13:41:50;;;;;;;3.80;3.50;;;;;;;;;;5099843;28;20207;-56
2022/04/26 13:44:19;;;;;;;3.85;3.65;;;;;;;;;;5100142;28;20204;-57
2022/04/26 13:46:45;;;;;;;3.85;3.65;;;;;;;;;;5079490;28;20208;-56
2022/04/26 13:49:12;;;;;;;3.50;3.20;;;;;;;;;;5079868;28;20204;-57
2022/04/26 13:51:38;;;;;;;4.30;3.58;;;;;;;;;;5079654;28;20200;-57
2022/04/26 13:54:04;;;;;;;3.90;3.60;;;;;;;;;;5090734;28;20218;-57
2022/04/26 13:56:32;;;;;;;3.45;3.15;;;;;;;;;;5099833;28;20242;-56
2022/04/26 13:58:58;;;;;;;3.38;3.13;;;;;;;;;;5100075;28;20216;-57
2022/04/26 14:01:24;;;;;;;3.03;2.92;;;;;;;;;;5099280;28;20272;-56
2022/04/26 14:03:51;;;;;;;3.10;3.00;;;;;;;;;;5099630;28;20223;-57
2022/04/26 14:06:21;;;;;;;4.03;3.72;;;;;;;;;;5098268;28;20421;-57
2022/04/26 14:08:48;;;;;;;3.45;3.20;;;;;;;;;;5099327;28;20600;-57
2022/04/26 14:11:14;;;;;;;4.88;3.70;;;;;;;;;;5099117;28;20230;-57
2022/04/26 14:21:51;;;;;;;2.45;2.35;;;;;;;;;;5098967;28;20222;-56
2022/04/26 14:24:17;;;;;;;2.65;2.55;;;;;;;;;;5099323;28;20208;-56
2022/04/26 14:26:43;;;;;;;2.88;2.70;;;;;;;;;;5099014;28;20550;-57
2022/04/26 14:29:11;;;;;;;3.28;3.08;;;;;;;;;;5098683;28;20413;-57
2022/04/26 14:31:38;;;;;;;3.30;3.00;;;;;;;;;;5098900;28;20522;-57
2022/04/26 14:34:04;;;;;;;4.13;3.15;;;;;;;;;;5099425;28;20212;-56
2022/04/26 14:36:31;;;;;;;2.05;1.95;;;;;;;;;;5098971;28;20567;-57
2022/04/26 14:38:57;;;;;;;2.30;2.20;;;;;;;;;;5098913;28;20269;-57
2022/04/26 14:41:23;;;;;;;2.30;2.20;;;;;;;;;;5098932;28;20208;-57
2022/04/26 14:43:49;;;;;;;2.25;1.90;;;;;;;;;;5098744;28;20361;-57
2022/04/26 14:46:17;;;;;;;1.77;1.77;;;;;;;;;;5098917;28;20199;-57
2022/04/26 14:48:44;;;;;;;2.70;2.50;;;;;;;;;;5098635;28;20212;-56
2022/04/26 14:51:11;;;;;;;2.42;2.33;;;;;;;;;;5098591;28;20215;-57
2022/04/26 14:53:38;;;;;;;2.28;2.17;;;;;;;;;;5098828;28;20231;-57
2022/04/26 14:56:04;;;;;;;2.33;2.10;;;;;;;;;;5098094;28;20266;-56
2022/04/26 14:58:31;;;;;;;1.50;1.38;;;;;;;;;;5098559;28;20502;-56
2022/04/26 15:00:57;;;;;;;1.77;1.75;;;;;;;;;;5097811;28;20226;-57
2022/04/26 15:03:25;;;;;;;2.30;1.75;;;;;;;;;;5099062;28;20248;-57
2022/04/26 15:05:52;;;;;;;1.92;1.83;;;;;;;;;;5098872;28;20434;-56
2022/04/26 15:11:02;;;;;;;3.17;2.42;;;;;;;;;;5097749;28;20553;-57
2022/04/26 15:18:57;;;;;;;2.53;2.40;;;;;;;;;;5097891;28;20230;-57
2022/04/26 15:21:24;;;;;;;2.83;2.63;;;;;;;;;;5097149;28;20211;-58
2022/04/26 15:23:51;;;;;;;2.47;2.38;;;;;;;;;;5098508;28;20215;-57
2022/04/26 15:26:17;;;;;;;2.42;2.33;;;;;;;;;;5098518;28;20212;-58
2022/04/26 15:28:43;;;;;;;2.45;2.35;;;;;;;;;;5098371;28;20428;-58
2022/04/26 15:31:10;;;;;;;2.00;1.90;;;;;;;;;;5097342;28;20427;-57
2022/04/26 15:33:38;;;;;;;2.55;2.22;;;;;;;;;;5097942;28;20443;-57
2022/04/26 15:36:06;;;;;;;2.15;2.00;;;;;;;;;;5097928;28;20207;-56
2022/04/26 15:38:33;;;;;;;2.45;2.13;;;;;;;;;;5097664;28;20265;-57
2022/04/26 15:41:05;;;;;;;4.05;2.30;;;;;;;;;;5097369;28;20238;-56
2022/04/26 15:43:31;;;;;;;2.70;2.30;;;;;;;;;;5097868;28;20216;-59
2022/04/26 15:45:58;;;;;;;3.30;2.40;;;;;;;;;;5097238;28;20348;-57
2022/04/26 15:48:24;;;;;;;2.33;2.22;;;;;;;;;;5097505;28;20210;-57
2022/04/26 15:50:50;;;;;;;4.43;2.15;;;;;;;;;;5097491;28;20525;-59
2022/04/26 15:53:18;;;;;;;2.25;2.15;;;;;;;;;;5097320;28;20211;-57
2022/04/26 15:55:45;;;;;;;1.98;1.98;;;;;;;;;;5097028;28;20207;-58
2022/04/26 15:58:11;;;;;;;2.60;2.50;;;;;;;;;;5097861;28;20215;-57
2022/04/26 16:00:37;;;;;;;2.63;2.50;;;;;;;;;;5097238;28;20214;-58
2022/04/26 16:03:04;;;;;;;2.70;2.60;;;;;;;;;;5097251;28;20455;-58
2022/04/26 16:05:31;;;;;;;2.78;2.67;;;;;;;;;;5097541;28;20223;-59
2022/04/26 16:07:57;;;;;;;2.80;2.60;;;;;;;;;;5097540;28;20546;-58
2022/04/26 16:21:22;;;;;;;3.90;3.53;;;;;;;;;;5096805;28;20238;-58
2022/04/26 16:23:48;;;;;;;3.70;3.20;;;;;;;;;;5096970;28;20204;-57
2022/04/26 16:26:19;;;;;;;3.35;3.20;;;;;;;;;;5096787;28;20428;-58
2022/04/26 16:28:46;;;;;;;2.97;2.88;;;;;;;;;;5096398;28;20207;-59
2022/04/26 16:31:13;;;;;;;4.50;3.75;;;;;;;;;;5096595;28;20208;-57
2022/04/26 16:33:40;;;;;;;3.90;3.60;;;;;;;;;;5096505;28;20212;-58
2022/04/26 16:36:07;;;;;;;4.10;3.65;;;;;;;;;;5096822;28;20215;-57
2022/04/26 16:38:34;;;;;;;2.95;2.85;;;;;;;;;;5097400;28;20435;-58
2022/04/26 16:41:03;;;;;;;3.40;3.08;;;;;;;;;;5096729;28;20207;-57
2022/04/26 16:43:31;;;;;;;3.42;3.13;;;;;;;;;;5097097;28;20723;-57
2022/04/26 16:45:57;;;;;;;3.15;2.95;;;;;;;;;;5096227;28;20212;-57
2022/04/26 16:48:25;;;;;;;3.42;3.25;;;;;;;;;;5096680;28;20289;-57
2022/04/26 16:50:51;;;;;;;3.55;3.25;;;;;;;;;;5096448;28;20399;-59
2022/04/26 16:53:18;;;;;;;2.47;2.38;;;;;;;;;;5081278;28;20467;-58
2022/04/26 16:55:44;;;;;;;2.50;2.40;;;;;;;;;;5076486;28;20215;-57
2022/04/26 16:58:11;;;;;;;2.60;2.40;;;;;;;;;;5076477;28;20208;-57
2022/04/26 17:00:39;;;;;;;2.13;2.03;;;;;;;;;;5076078;28;20275;-57
2022/04/26 17:03:05;;;;;;;4.05;2.40;;;;;;;;;;5075899;28;20298;-58
2022/04/26 17:05:32;;;;;;;2.42;2.35;;;;;;;;;;5076327;28;20297;-57
2022/04/26 17:07:58;;;;;;;2.83;2.63;;;;;;;;;;5080800;28;20212;-57
2022/04/26 17:10:24;;;;;;;3.03;2.92;;;;;;;;;;5083331;28;20204;-57
2022/04/26 17:12:52;;;;;;;2.47;2.30;;;;;;;;;;5103474;28;20204;-57
2022/04/26 17:15:18;;;;;;;4.55;2.80;;;;;;;;;;5103743;28;20248;-56
2022/04/26 17:17:46;;;;;;;4.20;2.50;;;;;;;;;;5103159;28;20249;-56
2022/04/26 17:20:13;;;;;;;3.10;2.22;;;;;;;;;;5103440;28;20231;-57
2022/04/26 17:22:40;;;;;;;2.78;2.67;;;;;;;;;;5103541;28;20410;-56
2022/04/26 17:25:16;;;;;;;2.20;2.15;;;;;;;;;;5103410;28;20242;-58
2022/04/26 17:27:43;;;;;;;2.53;2.33;;;;;;;;;;5103325;28;20264;-57
2022/04/26 17:30:09;;;;;;;2.42;2.28;;;;;;;;;;5103388;28;20200;-57
2022/04/26 17:32:35;;;;;;;3.13;2.88;;;;;;;;;;5103794;28;20518;-57
2022/04/26 17:35:03;;;;;;;2.28;2.17;;;;;;;;;;5103644;28;20210;-58
2022/04/26 17:37:30;;;;;;;4.68;2.40;;;;;;;;;;5103185;28;20279;-58
2022/04/26 17:39:56;;;;;;;2.30;2.20;;;;;;;;;;5102948;28;20224;-58
2022/04/26 17:42:24;;;;;;;2.90;2.70;;;;;;;;;;5103031;28;20230;-57
2022/04/26 17:44:51;;;;;;;2.30;2.30;;;;;;;;;;5102257;28;20550;-58
2022/04/26 17:47:17;;;;;;;2.95;2.80;;;;;;;;;;5092958;28;20204;-58
2022/04/26 17:49:43;;;;;;;2.10;2.00;;;;;;;;;;5085460;28;20512;-58
2022/04/26 17:52:11;;;;;;;2.17;2.08;;;;;;;;;;5082463;28;20208;-56
2022/04/26 17:57:20;;;;;;;2.10;2.00;;;;;;;;;;5082270;28;20223;-58
2022/04/26 17:59:47;;;;;;;2.88;2.67;;;;;;;;;;5082797;28;20274;-57
2022/04/26 18:02:13;;;;;;;2.85;2.75;;;;;;;;;;5082539;28;20213;-56
2022/04/26 18:04:40;;;;;;;3.53;3.22;;;;;;;;;;5082826;28;20246;-56
2022/04/26 18:07:07;;;;;;;2.97;2.78;;;;;;;;;;5082187;28;20304;-57
2022/04/26 18:09:36;;;;;;;2.67;2.55;;;;;;;;;;5082295;28;20435;-58
2022/04/26 18:12:02;;;;;;;2.10;2.10;;;;;;;;;;5082518;28;20416;-57
2022/04/26 18:14:29;;;;;;;2.17;2.00;;;;;;;;;;5082369;28;20211;-57
2022/04/26 18:16:56;;;;;;;2.35;2.25;;;;;;;;;;5081972;28;20211;-56
2022/04/26 18:19:22;;;;;;;2.50;2.40;;;;;;;;;;5081452;28;20439;-57
2022/04/26 18:21:48;;;;;;;2.53;2.42;;;;;;;;;;5082463;28;20204;-57
2022/04/26 18:24:18;;;;;;;2.25;2.15;;;;;;;;;;5082096;28;20433;-57
2022/04/26 18:26:46;;;;;;;2.17;2.17;;;;;;;;;;5098497;28;20384;-57
2022/04/26 18:29:19;;;;;;;2.40;2.30;;;;;;;;;;5102470;28;20596;-56
2022/04/26 18:31:46;;;;;;;2.30;2.20;;;;;;;;;;5102042;28;20213;-56
2022/04/26 18:34:15;;;;;;;1.80;1.80;;;;;;;;;;5102065;28;20203;-57
2022/04/26 18:36:41;;;;;;;1.90;1.90;;;;;;;;;;5099639;28;20207;-58
2022/04/26 18:39:08;;;;;;;1.70;1.70;;;;;;;;;;5091038;28;20232;-58
2022/04/26 18:41:35;;;;;;;4.03;2.10;;;;;;;;;;5101978;28;20223;-56
2022/04/26 18:44:03;;;;;;;2.00;1.92;;;;;;;;;;5101544;28;20208;-57
2022/04/26 18:46:29;;;;;;;2.05;1.90;;;;;;;;;;5101656;28;20507;-57
2022/04/26 18:48:56;;;;;;;2.05;1.90;;;;;;;;;;5101562;28;20235;-67
2022/04/26 18:51:22;;;;;;;2.03;1.80;;;;;;;;;;5102151;28;20204;-67
2022/04/26 18:53:48;;;;;;;2.40;2.30;;;;;;;;;;5102121;28;20507;-67
2022/04/26 18:56:15;;;;;;;1.92;1.83;;;;;;;;;;5101272;28;20265;-66
2022/04/26 18:58:41;;;;;;;2.50;2.30;;;;;;;;;;5101783;28;20226;-67
2022/04/26 19:01:09;;;;;;;2.50;2.40;;;;;;;;;;5101139;28;20227;-67
2022/04/26 19:03:35;;;;;;;2.28;2.17;;;;;;;;;;5101537;28;20211;-67
2022/04/26 19:06:02;;;;;;;3.03;1.98;;;;;;;;;;5100678;28;20502;-67
2022/04/26 19:08:29;;;;;;;2.60;2.50;;;;;;;;;;5101351;28;20290;-67
2022/04/26 19:13:39;;;;;;;2.20;2.10;;;;;;;;;;5098551;28;20460;-67